createdAt,value
2023-05-20T00:00:54.692Z,23.40
2023-05-20T00:03:21.919Z,24.30
2023-05-20T00:05:49.156Z,26.90
2023-05-20T00:08:16.294Z,29.10
2023-05-20T00:10:43.267Z,27.20
2023-05-20T00:13:10.369Z,25.40
2023-05-20T00:15:37.961Z,25.50
2023-05-20T00:18:05.362Z,24.70
2023-05-20T00:20:32.890Z,26.50
2023-05-20T00:23:00.241Z,30.50
2023-05-20T00:25:27.443Z,26.40
2023-05-20T00:27:54.530Z,27.90
2023-05-20T00:30:22.511Z,20.50
2023-05-20T00:32:49.653Z,17.00
2023-05-20T00:35:17.772Z,15.30
2023-05-20T00:37:45.593Z,14.10
2023-05-20T00:40:15.399Z,11.40
2023-05-20T00:42:43.294Z,11.50
2023-05-20T00:45:10.993Z,10.90
2023-05-20T00:47:38.633Z,9.30
2023-05-20T00:50:07.364Z,10.60
2023-05-20T00:52:34.396Z,10.60
2023-05-20T00:55:01.486Z,9.40
2023-05-20T00:57:28.526Z,9.40
2023-05-20T00:59:55.703Z,9.60
2023-05-20T01:02:22.835Z,8.80
2023-05-20T01:04:50.337Z,10.00
2023-05-20T01:07:17.893Z,8.90
2023-05-20T01:09:45.351Z,10.30
2023-05-20T01:12:18.319Z,9.60
2023-05-20T01:14:50.548Z,9.20
2023-05-20T01:17:18.363Z,8.50
2023-05-20T01:19:45.936Z,8.60
2023-05-20T01:22:13.682Z,9.20
2023-05-20T01:24:45.380Z,10.20
2023-05-20T01:27:13.693Z,10.20
2023-05-20T01:29:42.241Z,9.30
2023-05-20T01:32:14.935Z,8.70
2023-05-20T01:34:42.007Z,9.00
2023-05-20T01:37:09.424Z,11.10
2023-05-20T01:39:38.054Z,16.80
2023-05-20T01:42:05.483Z,18.10
2023-05-20T01:44:33.029Z,18.70
2023-05-20T01:47:00.509Z,18.90
2023-05-20T01:49:28.142Z,17.70
2023-05-20T01:51:56.213Z,18.70
2023-05-20T01:54:23.263Z,19.70
2023-05-20T01:56:50.436Z,20.50
2023-05-20T01:59:17.386Z,22.10
2023-05-20T02:01:44.430Z,20.90
2023-05-20T02:04:12.017Z,18.00
2023-05-20T02:06:39.214Z,16.00
2023-05-20T02:09:06.516Z,14.90
2023-05-20T02:11:33.512Z,11.40
2023-05-20T02:14:00.494Z,12.20
2023-05-20T02:16:28.449Z,12.60
2023-05-20T02:18:58.844Z,10.30
2023-05-20T02:23:55.511Z,9.30
2023-05-20T02:26:25.744Z,9.10
2023-05-20T02:28:52.694Z,9.00
2023-05-20T02:31:24.505Z,8.80
2023-05-20T02:33:51.680Z,9.20
2023-05-20T02:36:18.716Z,9.00
2023-05-20T02:38:45.651Z,9.00
2023-05-20T02:41:12.679Z,8.50
2023-05-20T02:43:42.327Z,9.80
2023-05-20T02:46:09.339Z,9.30
2023-05-20T02:48:36.362Z,10.50
2023-05-20T02:51:04.663Z,14.20
2023-05-20T02:53:31.621Z,13.20
2023-05-20T02:55:58.576Z,18.20
2023-05-20T02:58:26.602Z,15.30
2023-05-20T03:00:54.009Z,15.70
2023-05-20T03:03:21.979Z,16.50
2023-05-20T03:05:49.135Z,14.80
2023-05-20T03:08:23.252Z,11.70
2023-05-20T03:10:51.002Z,10.80
2023-05-20T03:13:18.523Z,9.00
2023-05-20T03:15:45.691Z,8.80
2023-05-20T03:18:14.011Z,7.90
2023-05-20T03:20:41.857Z,8.70
2023-05-20T03:23:10.013Z,8.10
2023-05-20T03:25:37.806Z,8.60
2023-05-20T03:28:06.812Z,8.80
2023-05-20T03:30:35.479Z,11.30
2023-05-20T03:35:31.928Z,13.30
2023-05-20T03:38:01.953Z,11.60
2023-05-20T03:40:29.320Z,9.30
2023-05-20T03:42:56.645Z,9.00
2023-05-20T03:45:25.540Z,9.10
2023-05-20T03:48:07.348Z,10.10
2023-05-20T03:50:35.266Z,9.40
2023-05-20T03:53:02.745Z,11.50
2023-05-20T03:55:35.288Z,8.50
2023-05-20T03:58:03.130Z,10.00
2023-05-20T04:00:32.043Z,9.50
2023-05-20T04:02:59.721Z,10.00
2023-05-20T04:05:27.189Z,10.40
2023-05-20T04:07:54.989Z,10.20
2023-05-20T04:10:22.344Z,8.20
2023-05-20T04:15:19.655Z,7.40
2023-05-20T04:17:54.852Z,6.60
2023-05-20T04:20:22.284Z,6.30
2023-05-20T04:22:54.229Z,6.20
2023-05-20T04:25:22.161Z,6.00
2023-05-20T04:27:49.920Z,6.90
2023-05-20T04:30:20.564Z,6.70
2023-05-20T04:32:48.603Z,5.40
2023-05-20T04:35:15.587Z,5.80
2023-05-20T04:37:53.314Z,5.40
2023-05-20T04:40:21.338Z,5.90
2023-05-20T04:42:48.332Z,5.20
2023-05-20T04:45:15.655Z,6.10
2023-05-20T04:47:44.588Z,5.90
2023-05-20T04:50:11.856Z,5.50
2023-05-20T04:52:42.095Z,5.00
2023-05-20T04:57:42.587Z,5.00
2023-05-20T05:00:12.602Z,5.90
2023-05-20T05:02:39.890Z,4.60
2023-05-20T05:05:07.668Z,5.40
2023-05-20T05:07:35.075Z,6.50
2023-05-20T05:10:03.369Z,5.30
2023-05-20T05:12:31.320Z,6.40
2023-05-20T05:14:59.436Z,5.40
2023-05-20T05:17:28.959Z,5.20
2023-05-20T05:19:57.314Z,5.20
2023-05-20T05:22:24.737Z,5.30
2023-05-20T05:24:52.472Z,5.20
2023-05-20T05:27:19.501Z,5.00
2023-05-20T05:29:46.461Z,4.50
2023-05-20T05:32:13.676Z,4.60
2023-05-20T05:34:41.104Z,5.00
2023-05-20T05:37:08.263Z,5.20
2023-05-20T05:39:37.930Z,4.90
2023-05-20T05:42:05.946Z,5.20
2023-05-20T05:47:00.589Z,4.40
2023-05-20T05:49:27.580Z,5.40
2023-05-20T05:51:54.616Z,4.60
2023-05-20T05:54:22.081Z,5.40
2023-05-20T05:56:53.848Z,4.50
2023-05-20T05:59:25.625Z,4.60
2023-05-20T06:02:14.898Z,5.10
2023-05-20T06:04:42.302Z,4.90
2023-05-20T06:07:10.021Z,4.60
2023-05-20T06:09:37.214Z,4.00
2023-05-20T06:12:04.668Z,4.90
2023-05-20T06:14:32.699Z,4.60
2023-05-20T06:19:27.074Z,4.60
2023-05-20T06:21:54.117Z,4.50
2023-05-20T06:24:22.394Z,4.70
2023-05-20T06:26:52.600Z,4.10
2023-05-20T06:29:19.701Z,4.70
2023-05-20T06:31:46.690Z,4.40
2023-05-20T06:34:13.937Z,3.70
2023-05-20T06:36:41.620Z,4.10
2023-05-20T06:39:12.615Z,4.40
2023-05-20T06:41:43.166Z,4.80
2023-05-20T06:46:52.967Z,4.30
2023-05-20T06:49:20.498Z,3.90
2023-05-20T06:51:48.500Z,4.20
2023-05-20T06:54:16.077Z,5.00
2023-05-20T06:59:11.562Z,5.00
2023-05-20T07:01:39.361Z,4.40
2023-05-20T07:04:07.288Z,4.10
2023-05-20T07:06:34.836Z,3.80
2023-05-20T07:09:01.959Z,4.70
2023-05-20T07:11:28.964Z,5.20
2023-05-20T07:13:56.002Z,4.20
2023-05-20T07:16:25.103Z,3.20
2023-05-20T07:18:54.626Z,3.80
2023-05-20T07:21:21.612Z,4.00
2023-05-20T07:24:11.656Z,3.20
2023-05-20T07:26:38.728Z,3.30
2023-05-20T07:29:05.939Z,4.00
2023-05-20T07:31:33.623Z,3.80
2023-05-20T07:34:00.580Z,3.30
2023-05-20T07:36:28.105Z,3.30
2023-05-20T07:39:02.399Z,3.40
2023-05-20T07:41:34.264Z,3.40
2023-05-20T07:44:05.150Z,3.70
2023-05-20T07:46:33.236Z,3.40
2023-05-20T07:49:00.855Z,4.00
2023-05-20T07:51:27.954Z,3.70
2023-05-20T07:53:54.957Z,3.50
2023-05-20T07:56:25.275Z,3.70
2023-05-20T07:58:54.374Z,3.70
2023-05-20T08:01:22.175Z,3.40
2023-05-20T08:06:25.790Z,3.00
2023-05-20T08:08:54.466Z,2.90
2023-05-20T08:11:25.150Z,3.00
2023-05-20T08:13:52.260Z,3.50
2023-05-20T08:16:21.714Z,3.40
2023-05-20T08:18:48.969Z,3.10
2023-05-20T08:21:16.114Z,3.20
2023-05-20T08:23:43.232Z,3.30
2023-05-20T08:26:10.195Z,3.10
2023-05-20T08:28:39.969Z,3.10
2023-05-20T08:31:07.581Z,3.30
2023-05-20T08:33:35.375Z,3.00
2023-05-20T08:36:02.664Z,3.10
2023-05-20T08:38:29.996Z,3.30
2023-05-20T08:40:57.667Z,3.30
2023-05-20T08:45:55.134Z,3.10
2023-05-20T08:48:26.343Z,3.10
2023-05-20T08:50:53.661Z,3.60
2023-05-20T08:53:21.199Z,3.70
2023-05-20T08:56:00.990Z,2.90
2023-05-20T08:58:29.608Z,2.80
2023-05-20T09:00:56.598Z,3.30
2023-05-20T09:03:24.542Z,3.30
2023-05-20T09:08:20.576Z,3.50
2023-05-20T09:10:47.591Z,2.90
2023-05-20T09:13:14.573Z,2.80
2023-05-20T09:15:41.826Z,3.30
2023-05-20T09:18:09.344Z,3.10
2023-05-20T09:20:37.754Z,3.10
2023-05-20T09:23:06.552Z,3.20
2023-05-20T09:25:33.866Z,3.30
2023-05-20T09:28:01.204Z,3.20
2023-05-20T09:30:28.353Z,3.10
2023-05-20T09:32:58.849Z,2.90
2023-05-20T09:35:46.791Z,2.70
2023-05-20T09:38:13.905Z,4.20
2023-05-20T09:40:41.648Z,2.60
2023-05-20T09:43:08.927Z,3.20
2023-05-20T09:45:39.787Z,2.50
2023-05-20T09:48:09.161Z,3.10
2023-05-20T09:50:36.758Z,2.60
2023-05-20T09:53:04.463Z,3.10
2023-05-20T09:58:02.307Z,2.70
2023-05-20T10:00:29.292Z,3.30
2023-05-20T10:02:57.133Z,2.80
2023-05-20T10:05:36.824Z,3.10
2023-05-20T10:08:26.310Z,3.10
2023-05-20T10:11:25.442Z,2.60
2023-05-20T10:13:58.447Z,3.10
2023-05-20T10:16:39.060Z,2.30
2023-05-20T10:19:32.910Z,2.70
2023-05-20T10:22:04.304Z,2.80
2023-05-20T10:24:32.872Z,2.90
2023-05-20T10:27:02.945Z,2.80
2023-05-20T10:29:30.217Z,2.60
2023-05-20T10:31:57.285Z,2.70
2023-05-20T10:34:24.605Z,2.60
2023-05-20T10:36:54.655Z,2.80
2023-05-20T10:39:31.542Z,2.70
2023-05-20T10:42:09.443Z,2.60
2023-05-20T10:44:47.248Z,3.20
2023-05-20T10:49:47.612Z,2.50
2023-05-20T10:52:14.829Z,2.60
2023-05-20T10:54:56.840Z,2.70
2023-05-20T10:57:24.781Z,3.00
2023-05-20T11:02:20.083Z,2.70
2023-05-20T11:04:47.326Z,2.60
2023-05-20T11:07:29.068Z,2.60
2023-05-20T11:09:56.923Z,2.60
2023-05-20T11:12:24.593Z,2.30
2023-05-20T11:14:51.955Z,2.20
2023-05-20T11:17:19.361Z,2.50
2023-05-20T11:19:47.528Z,3.00
2023-05-20T11:22:14.667Z,3.20
2023-05-20T11:24:41.703Z,2.10
2023-05-20T11:27:08.791Z,2.10
2023-05-20T11:29:35.727Z,3.60
2023-05-20T11:32:02.767Z,2.70
2023-05-20T11:34:36.995Z,2.70
2023-05-20T11:37:08.020Z,5.60
2023-05-20T11:39:35.071Z,2.70
2023-05-20T11:42:02.060Z,3.40
2023-05-20T11:44:29.125Z,2.70
2023-05-20T11:47:03.323Z,2.80
2023-05-20T11:49:31.067Z,2.80
2023-05-20T11:51:58.697Z,3.10
2023-05-20T11:54:26.314Z,2.70
2023-05-20T11:56:54.352Z,2.60
2023-05-20T11:59:22.099Z,2.40
2023-05-20T12:01:49.077Z,2.70
2023-05-20T12:04:20.207Z,3.10
2023-05-20T12:06:47.568Z,3.80
2023-05-20T12:09:14.897Z,3.60
2023-05-20T12:11:42.488Z,3.30
2023-05-20T12:14:09.670Z,2.40
2023-05-20T12:16:37.405Z,2.30
2023-05-20T12:19:04.629Z,3.30
2023-05-20T12:21:32.079Z,2.80
2023-05-20T12:23:59.589Z,3.10
2023-05-20T12:26:27.620Z,2.60
2023-05-20T12:28:55.223Z,2.70
2023-05-20T12:31:22.374Z,2.90
2023-05-20T12:33:49.412Z,3.30
2023-05-20T12:36:16.541Z,2.60
2023-05-20T12:38:43.571Z,2.70
2023-05-20T12:41:10.515Z,2.60
2023-05-20T12:43:37.776Z,2.50
2023-05-20T12:46:05.118Z,2.50
2023-05-20T12:48:32.108Z,2.20
2023-05-20T12:50:59.224Z,3.00
2023-05-20T12:53:26.272Z,2.30
2023-05-20T12:55:53.398Z,2.60
2023-05-20T12:58:20.609Z,1.60
2023-05-20T13:00:47.645Z,2.50
2023-05-20T13:03:15.113Z,2.60
2023-05-20T13:05:42.464Z,2.40
2023-05-20T13:08:10.362Z,2.90
2023-05-20T13:10:38.127Z,2.70
2023-05-20T13:13:05.609Z,1.90
2023-05-20T13:15:33.685Z,1.70
2023-05-20T13:18:01.800Z,1.90
2023-05-20T13:22:56.879Z,1.70
2023-05-20T13:25:23.897Z,2.00
2023-05-20T13:27:51.177Z,1.70
2023-05-20T13:30:18.146Z,1.90
2023-05-20T13:32:45.275Z,1.60
2023-05-20T13:35:13.332Z,2.00
2023-05-20T13:40:08.675Z,1.70
2023-05-20T13:42:35.641Z,1.60
2023-05-20T13:45:02.659Z,2.00
2023-05-20T13:47:29.725Z,1.50
2023-05-20T13:49:56.904Z,1.50
2023-05-20T13:52:24.010Z,1.30
2023-05-20T13:54:51.031Z,1.60
2023-05-20T13:57:18.083Z,1.90
2023-05-20T13:59:45.027Z,1.80
2023-05-20T14:02:12.053Z,1.50
2023-05-20T14:04:40.275Z,3.40
2023-05-20T14:07:09.594Z,1.80
2023-05-20T14:09:37.082Z,1.90
2023-05-20T14:12:05.271Z,1.50
2023-05-20T14:14:32.362Z,2.00
2023-05-20T14:16:59.700Z,1.50
2023-05-20T14:19:27.374Z,2.00
2023-05-20T14:21:54.607Z,3.70
2023-05-20T14:24:23.737Z,3.30
2023-05-20T14:26:51.173Z,2.30
2023-05-20T14:29:18.195Z,1.90
2023-05-20T14:31:45.247Z,3.60
2023-05-20T14:34:12.724Z,3.20
2023-05-20T14:36:39.750Z,3.00
2023-05-20T14:39:06.900Z,2.30
2023-05-20T14:41:33.892Z,1.70
2023-05-20T14:44:00.813Z,1.90
2023-05-20T14:46:27.977Z,1.60
2023-05-20T14:48:55.091Z,2.20
2023-05-20T14:51:22.134Z,2.00
2023-05-20T14:53:49.270Z,1.60
2023-05-20T14:56:16.200Z,1.40
2023-05-20T14:58:43.142Z,1.60
2023-05-20T15:01:10.374Z,2.00
2023-05-20T15:03:37.464Z,2.30
2023-05-20T15:06:04.537Z,2.60
2023-05-20T15:08:31.598Z,2.20
2023-05-20T15:10:58.732Z,1.60
2023-05-20T15:13:25.725Z,2.20
2023-05-20T15:15:53.611Z,2.90
2023-05-20T15:18:20.869Z,1.90
2023-05-20T15:20:47.863Z,1.80
2023-05-20T15:23:15.156Z,2.20
2023-05-20T15:25:42.094Z,1.80
2023-05-20T15:28:08.987Z,1.90
2023-05-20T15:30:36.337Z,2.30
2023-05-20T15:33:04.075Z,2.30
2023-05-20T15:35:31.229Z,2.10
2023-05-20T15:37:58.198Z,2.40
2023-05-20T15:40:25.148Z,2.40
2023-05-20T15:42:53.631Z,2.20
2023-05-20T15:45:20.859Z,1.70
2023-05-20T15:47:47.919Z,2.20
2023-05-20T15:50:15.069Z,1.80
2023-05-20T15:52:42.147Z,1.50
2023-05-20T15:55:10.069Z,2.10
2023-05-20T16:00:07.176Z,1.90
2023-05-20T16:02:36.260Z,3.80
2023-05-20T16:05:04.622Z,4.70
2023-05-20T16:07:31.700Z,1.70
2023-05-20T16:09:58.657Z,1.80
2023-05-20T16:12:26.003Z,1.80
2023-05-20T16:14:52.949Z,2.30
2023-05-20T16:17:21.801Z,2.40
2023-05-20T16:19:48.846Z,1.80
2023-05-20T16:22:16.590Z,2.10
2023-05-20T16:24:44.041Z,2.10
2023-05-20T16:27:11.422Z,1.70
2023-05-20T16:29:39.983Z,1.80
2023-05-20T16:32:07.532Z,1.80
2023-05-20T16:34:34.725Z,2.10
2023-05-20T16:37:02.561Z,2.00
2023-05-20T16:39:29.556Z,2.00
2023-05-20T16:41:56.648Z,2.20
2023-05-20T16:44:23.647Z,2.30
2023-05-20T16:46:52.668Z,2.20
2023-05-20T16:49:21.335Z,2.10
2023-05-20T16:51:48.644Z,1.80
2023-05-20T16:54:15.873Z,2.20
2023-05-20T16:56:42.818Z,2.20
2023-05-20T16:59:09.768Z,1.90
2023-05-20T17:01:37.191Z,2.10
2023-05-20T17:04:04.840Z,2.40
2023-05-20T17:06:34.285Z,2.90
2023-05-20T17:09:04.191Z,2.60
2023-05-20T17:11:31.343Z,2.20
2023-05-20T17:13:58.552Z,2.70
2023-05-20T17:16:25.577Z,2.70
2023-05-20T17:18:53.933Z,3.30
2023-05-20T17:21:21.145Z,2.50
2023-05-20T17:23:48.316Z,2.90
2023-05-20T17:26:15.997Z,2.70
2023-05-20T17:28:43.133Z,2.90
2023-05-20T17:31:10.239Z,3.10
2023-05-20T17:33:37.250Z,3.10
2023-05-20T17:36:04.627Z,3.20
2023-05-20T17:38:33.981Z,3.70
2023-05-20T17:41:01.118Z,3.50
2023-05-20T17:43:28.615Z,4.00
2023-05-20T17:45:55.836Z,3.90
2023-05-20T17:48:25.445Z,4.50
2023-05-20T17:50:52.499Z,4.60
2023-05-20T17:53:21.958Z,5.20
2023-05-20T17:55:49.584Z,4.40
2023-05-20T17:58:17.146Z,5.20
2023-05-20T18:00:44.270Z,5.60
2023-05-20T18:03:11.808Z,5.60
2023-05-20T18:05:39.073Z,5.60
2023-05-20T18:08:06.069Z,6.70
2023-05-20T18:10:35.505Z,8.50
2023-05-20T18:13:02.994Z,5.80
2023-05-20T18:15:30.760Z,8.00
2023-05-20T18:17:58.155Z,11.10
2023-05-20T18:20:25.658Z,13.30
2023-05-20T18:22:58.327Z,18.00
2023-05-20T18:25:26.043Z,16.70
2023-05-20T18:27:53.081Z,16.60
2023-05-20T18:30:20.236Z,14.00
2023-05-20T18:32:47.576Z,12.70
2023-05-20T18:35:14.710Z,10.10
2023-05-20T18:37:41.745Z,9.40
2023-05-20T18:40:09.649Z,7.50
2023-05-20T18:42:37.574Z,6.40
2023-05-20T18:45:05.199Z,5.10
2023-05-20T18:47:33.844Z,5.70
2023-05-20T18:50:00.841Z,5.50
2023-05-20T18:52:27.830Z,5.20
2023-05-20T18:54:54.900Z,7.20
2023-05-20T18:57:22.822Z,6.50
2023-05-20T18:59:49.782Z,9.40
2023-05-20T19:02:17.488Z,11.10
2023-05-20T19:04:44.909Z,15.70
2023-05-20T19:07:12.142Z,17.50
2023-05-20T19:09:39.072Z,17.50
2023-05-20T19:12:06.972Z,14.60
2023-05-20T19:14:34.098Z,14.20
2023-05-20T19:17:01.576Z,14.60
2023-05-20T19:19:28.904Z,14.40
2023-05-20T19:21:56.168Z,13.40
2023-05-20T19:24:23.790Z,13.90
2023-05-20T19:26:51.794Z,10.70
2023-05-20T19:29:18.945Z,9.10
2023-05-20T19:31:46.239Z,8.40
2023-05-20T19:34:13.955Z,5.90
2023-05-20T19:36:44.528Z,6.90
2023-05-20T19:39:11.754Z,7.00
2023-05-20T19:41:38.984Z,6.20
2023-05-20T19:44:06.323Z,5.80
2023-05-20T19:49:02.553Z,6.30
2023-05-20T19:51:29.556Z,6.20
2023-05-20T19:53:56.554Z,6.60
2023-05-20T19:56:24.365Z,6.00
2023-05-20T19:58:51.741Z,9.30
2023-05-20T20:01:18.944Z,9.50
2023-05-20T20:03:46.239Z,8.90
2023-05-20T20:06:14.389Z,7.70
2023-05-20T20:08:43.180Z,6.50
2023-05-20T20:11:10.416Z,6.50
2023-05-20T20:13:37.480Z,4.90
2023-05-20T20:16:06.686Z,4.40
2023-05-20T20:18:33.780Z,3.80
2023-05-20T20:21:05.439Z,4.70
2023-05-20T20:23:34.051Z,3.70
2023-05-20T20:26:02.091Z,3.90
2023-05-20T20:28:29.071Z,4.10
2023-05-20T20:30:56.207Z,4.20
2023-05-20T20:33:26.447Z,3.60
2023-05-20T20:35:57.003Z,3.50
2023-05-20T20:38:24.501Z,4.00
2023-05-20T20:40:53.837Z,3.50
2023-05-20T20:43:21.507Z,4.40
2023-05-20T20:45:50.799Z,5.00
2023-05-20T20:48:18.991Z,5.30
2023-05-20T20:50:48.059Z,4.30
2023-05-20T20:53:19.411Z,4.00
2023-05-20T20:55:46.545Z,3.50
2023-05-20T20:58:15.743Z,4.30
2023-05-20T21:00:44.570Z,3.60
2023-05-20T21:03:12.930Z,4.00
2023-05-20T21:08:13.580Z,4.20
2023-05-20T21:10:40.710Z,3.90
2023-05-20T21:13:07.978Z,3.60
2023-05-20T21:15:35.844Z,3.90
2023-05-20T21:18:03.745Z,3.60
2023-05-20T21:20:30.861Z,3.60
2023-05-20T21:22:57.810Z,3.40
2023-05-20T21:25:25.272Z,3.60
2023-05-20T21:27:52.235Z,4.30
2023-05-20T21:30:20.364Z,3.90
2023-05-20T21:32:47.762Z,4.10
2023-05-20T21:35:14.863Z,4.40
2023-05-20T21:37:41.859Z,3.60
2023-05-20T21:40:09.479Z,3.80
2023-05-20T21:42:36.647Z,3.80
2023-05-20T21:45:04.060Z,4.20
2023-05-20T21:47:31.374Z,3.60
2023-05-20T21:49:58.780Z,3.40
2023-05-20T21:52:25.780Z,3.70
2023-05-20T21:54:52.876Z,3.80
2023-05-20T21:57:19.914Z,3.50
2023-05-20T21:59:46.936Z,4.00
2023-05-20T22:02:13.870Z,3.60
2023-05-20T22:04:40.864Z,4.50
2023-05-20T22:07:09.653Z,3.40
2023-05-20T22:09:36.710Z,3.10
2023-05-20T22:12:03.941Z,3.20
2023-05-20T22:14:31.019Z,4.20
2023-05-20T22:16:58.742Z,3.40
2023-05-20T22:19:26.868Z,3.40
2023-05-20T22:21:53.960Z,3.60
2023-05-20T22:24:21.119Z,3.40
2023-05-20T22:26:48.126Z,3.60
2023-05-20T22:29:15.157Z,3.70
2023-05-20T22:31:42.290Z,3.70
2023-05-20T22:34:09.346Z,3.60
2023-05-20T22:36:37.564Z,3.70
2023-05-20T22:39:04.960Z,3.40
2023-05-20T22:41:32.157Z,3.60
2023-05-20T22:43:59.172Z,4.00
2023-05-20T22:46:26.410Z,3.90
2023-05-20T22:48:54.656Z,4.00
2023-05-20T22:51:21.815Z,3.90
2023-05-20T22:53:48.989Z,4.20
2023-05-20T22:56:16.357Z,3.80
2023-05-20T22:58:43.843Z,3.90
2023-05-20T23:01:10.923Z,3.50
2023-05-20T23:03:38.265Z,3.90
2023-05-20T23:06:05.558Z,3.70
2023-05-20T23:08:32.509Z,3.70
2023-05-20T23:10:59.467Z,3.30
2023-05-20T23:13:26.619Z,3.80
2023-05-20T23:15:54.526Z,3.30
2023-05-20T23:18:21.682Z,4.30
2023-05-20T23:20:48.833Z,4.20
2023-05-20T23:23:16.536Z,4.60
2023-05-20T23:25:45.848Z,4.50
2023-05-20T23:28:13.140Z,4.00
2023-05-20T23:30:40.106Z,3.70
2023-05-20T23:33:07.324Z,3.90
2023-05-20T23:35:34.795Z,3.70
2023-05-20T23:38:02.767Z,4.10
2023-05-20T23:40:29.844Z,3.40
2023-05-20T23:42:56.779Z,3.30
2023-05-20T23:45:24.612Z,3.80
2023-05-20T23:47:51.965Z,4.00
2023-05-20T23:50:19.120Z,3.90
2023-05-20T23:52:46.436Z,4.30
2023-05-20T23:55:14.414Z,4.10
2023-05-20T23:57:41.574Z,4.10
